Pine Ridge, Florida
Current Conditions -  °F | °C
As of 6:15 AM on Thursday 23 Oct 2014 (Local Time) from KCGC Reporting Station
Clear Clear  
Wind Chill: 54°   Ceiling: Unl
Heat Index: 54°   Visibility: 10mi
Dew Point: 50°   Wind: 0mph
Humidity: 88%   Direction: NA
Pressure: 30"   Gusts: NA
Location:  28.9342°N, 82.4936°W
Report Text: KCGC 231015Z AUTO 00000KT 10SM CLR 12/10 A3000 RMK AO2 PWINO
Loading
Personal Weather Stations






























Interactive Weather Map
Tropical Storm Tracking
New forecast layout! Learn more

10-Day Weather Forecast

Advertisements
Track Severe Weather on mobile